Time;durP1;ratioP1;P1;durP2;ratioP2;P2;SDS_P1;SDS_P2;PMS_P1;PMS_P2;Temp;Humidity;BMP_temperature;BMP_pressure;BME280_temperature;BME280_humidity;BME280_pressure;Samples;Min_cycle;Max_cycle;Signal;HPM_P1;HPM_P2
2023/03/20 00:01:20;;;;;;;0.40;0.40;;;;;;;4.81;90.58;97395.50;4984537;28;20532;-63
2023/03/20 00:03:47;;;;;;;0.50;0.50;;;;;;;4.85;91.01;97391.00;4987060;28;20666;-56
2023/03/20 00:06:20;;;;;;;0.40;0.40;;;;;;;4.84;91.27;97389.41;4988382;28;20058;-55
2023/03/20 00:08:48;;;;;;;0.47;0.47;;;;;;;4.56;91.15;97351.34;4988823;28;20423;-62
2023/03/20 00:11:32;;;;;;;0.50;0.50;;;;;;;4.77;91.49;97389.88;4991950;28;20048;-62
2023/03/20 00:14:04;;;;;;;0.40;0.40;;;;;;;4.86;90.51;97385.19;5023065;28;20504;-57
2023/03/20 00:16:34;;;;;;;0.50;0.50;;;;;;;4.88;89.33;97376.63;5006492;28;20049;-62
2023/03/20 00:19:02;;;;;;;0.50;0.50;;;;;;;4.92;88.67;97375.66;5022889;28;21241;-62
2023/03/20 00:21:30;;;;;;;0.47;0.47;;;;;;;4.48;88.96;97332.94;5022494;28;20505;-56
2023/03/20 00:23:57;;;;;;;0.40;0.40;;;;;;;4.95;89.02;97368.72;5008125;28;20054;-58
2023/03/20 00:26:27;;;;;;;0.50;0.50;;;;;;;4.83;88.56;97349.34;5007747;28;20420;-63
2023/03/20 00:28:53;;;;;;;0.43;0.43;;;;;;;4.79;88.91;97342.91;5007996;28;20491;-63
2023/03/20 00:31:27;;;;;;;0.40;0.40;;;;;;;4.96;88.75;97360.16;5007617;28;20056;-57
2023/03/20 00:33:57;;;;;;;0.40;0.40;;;;;;;4.35;88.46;97281.81;5007794;28;20081;-58
2023/03/20 00:36:24;;;;;;;0.40;0.40;;;;;;;4.86;88.50;97356.94;5007521;28;20100;-56
2023/03/20 00:38:51;;;;;;;0.50;0.50;;;;;;;4.71;88.89;97335.50;5007516;28;20127;-56
2023/03/20 00:41:24;;;;;;;0.50;0.50;;;;;;;4.87;89.03;97355.81;5007203;28;20076;-62
2023/03/20 00:43:58;;;;;;;0.40;0.40;;;;;;;4.84;88.71;97356.47;5007310;28;20524;-57
2023/03/20 00:46:25;;;;;;;0.50;0.50;;;;;;;4.96;87.88;97353.84;5017920;28;20500;-58
2023/03/20 00:48:53;;;;;;;0.40;0.40;;;;;;;4.95;87.54;97346.75;5027109;28;20060;-57
2023/03/20 00:51:20;;;;;;;0.40;0.40;;;;;;;4.80;88.02;97341.78;5025547;28;20057;-56
2023/03/20 00:53:47;;;;;;;0.50;0.50;;;;;;;4.63;89.24;97313.22;5041966;28;20041;-62
2023/03/20 00:56:31;;;;;;;0.40;0.40;;;;;;;4.26;88.91;97270.06;5026766;28;20053;-56
2023/03/20 00:59:00;;;;;;;0.40;0.40;;;;;;;3.85;89.48;97193.03;5026091;28;20176;-62
2023/03/20 01:01:28;;;;;;;0.40;0.40;;;;;;;4.65;89.73;97341.16;5025863;28;20111;-56
2023/03/20 01:03:55;;;;;;;0.40;0.40;;;;;;;4.58;89.53;97316.13;5026199;28;20140;-57
2023/03/20 01:06:21;;;;;;;0.50;0.50;;;;;;;4.34;88.96;97309.56;5025988;28;20547;-56
2023/03/20 01:08:48;;;;;;;0.40;0.40;;;;;;;4.40;89.83;97308.25;5026036;28;20069;-56
2023/03/20 01:11:20;;;;;;;0.40;0.40;;;;;;;4.36;91.34;97313.59;5022958;28;20078;-63
2023/03/20 01:13:47;;;;;;;0.40;0.40;;;;;;;4.30;92.03;97320.38;5006845;28;20112;-62
2023/03/20 01:16:24;;;;;;;0.40;0.40;;;;;;;4.26;93.10;97308.44;5006464;28;20049;-62
2023/03/20 01:18:51;;;;;;;0.40;0.40;;;;;;;4.33;92.54;97303.25;5005174;28;20138;-57
2023/03/20 01:21:19;;;;;;;0.40;0.40;;;;;;;4.34;91.71;97291.19;5007328;28;20057;-62
2023/03/20 01:23:48;;;;;;;0.50;0.50;;;;;;;4.47;91.12;97309.38;5006621;28;20462;-62
2023/03/20 01:26:27;;;;;;;0.50;0.50;;;;;;;4.52;90.60;97303.72;5005727;28;20081;-56
2023/03/20 01:28:54;;;;;;;0.40;0.40;;;;;;;4.51;90.18;97307.59;5005111;28;20058;-61
2023/03/20 01:31:20;;;;;;;0.40;0.40;;;;;;;4.54;90.12;97297.91;5006725;28;20137;-55
2023/03/20 01:33:47;;;;;;;0.50;0.50;;;;;;;4.63;89.16;97305.00;5006504;28;20053;-62
2023/03/20 01:36:16;;;;;;;0.40;0.40;;;;;;;4.49;89.30;97309.88;5006688;28;20085;-62
2023/03/20 01:38:43;;;;;;;0.45;0.45;;;;;;;4.49;90.00;97312.59;5005827;28;20053;-62
2023/03/20 01:41:12;;;;;;;0.50;0.50;;;;;;;4.48;90.17;97293.72;5006325;28;20096;-56
2023/03/20 01:43:39;;;;;;;0.40;0.40;;;;;;;4.42;90.67;97300.53;5006074;28;20061;-57
2023/03/20 01:46:29;;;;;;;0.40;0.40;;;;;;;4.28;90.46;97299.91;5006091;28;20054;-62
2023/03/20 01:49:28;;;;;;;0.40;0.40;;;;;;;4.26;90.99;97292.00;5005783;28;20107;-62
2023/03/20 01:51:56;;;;;;;0.40;0.40;;;;;;;4.19;91.82;97297.16;5006369;28;20123;-62
2023/03/20 01:54:34;;;;;;;0.40;0.40;;;;;;;4.17;91.98;97310.34;5006122;28;20104;-56
2023/03/20 01:57:10;;;;;;;0.40;0.40;;;;;;;4.25;90.73;97295.84;5005571;28;20519;-62
2023/03/20 02:00:10;;;;;;;0.40;0.40;;;;;;;4.12;90.99;97291.34;5005819;28;20054;-62
2023/03/20 02:02:39;;;;;;;0.40;0.40;;;;;;;3.95;91.03;97291.34;4994054;28;20595;-57
2023/03/20 02:05:09;;;;;;;0.40;0.40;;;;;;;4.02;90.07;97249.75;5006087;28;20212;-59
2023/03/20 02:07:38;;;;;;;0.40;0.40;;;;;;;4.23;89.91;97286.34;5021394;28;20080;-57
2023/03/20 02:10:09;;;;;;;0.40;0.40;;;;;;;4.22;90.44;97293.75;5005898;28;20056;-63
2023/03/20 02:12:37;;;;;;;0.40;0.40;;;;;;;4.20;92.09;97282.31;5019827;28;20067;-59
2023/03/20 02:15:06;;;;;;;0.40;0.40;;;;;;;4.22;91.88;97285.53;5022973;28;20072;-62
2023/03/20 02:17:33;;;;;;;0.40;0.40;;;;;;;4.25;92.05;97279.41;4986521;28;20129;-56
2023/03/20 02:20:27;;;;;;;0.40;0.40;;;;;;;4.27;92.25;97285.38;4985993;28;20062;-63
2023/03/20 02:22:54;;;;;;;0.40;0.40;;;;;;;4.20;92.65;97276.84;4985732;28;20109;-56
2023/03/20 02:26:02;;;;;;;0.40;0.40;;;;;;;4.17;92.94;97277.47;5000575;28;20058;-63
2023/03/20 02:28:49;;;;;;;0.40;0.40;;;;;;;4.25;92.55;97273.91;4982932;28;20074;-55
2023/03/20 02:31:49;;;;;;;0.40;0.40;;;;;;;4.16;93.02;97273.13;4983012;28;20498;-57
2023/03/20 02:34:34;;;;;;;0.40;0.40;;;;;;;4.18;92.92;97283.75;4980496;28;20148;-56
2023/03/20 02:37:38;;;;;;;0.45;0.45;;;;;;;4.08;94.43;97279.41;4986230;28;20058;-56
2023/03/20 02:40:29;;;;;;;0.40;0.40;;;;;;;4.05;93.31;97280.06;4985757;28;20353;-56
2023/03/20 02:43:06;;;;;;;0.40;0.40;;;;;;;3.91;93.45;97276.69;4985886;28;20105;-59
2023/03/20 02:45:47;;;;;;;0.40;0.40;;;;;;;3.43;92.90;97221.19;4984394;28;20066;-61
2023/03/20 02:48:35;;;;;;;0.40;0.40;;;;;;;3.68;93.05;97280.69;4985381;28;20144;-62
2023/03/20 02:51:05;;;;;;;0.40;0.40;;;;;;;3.71;93.29;97274.56;4985616;28;20080;-58
2023/03/20 02:54:16;;;;;;;0.40;0.40;;;;;;;3.77;92.18;97278.75;5000215;28;20516;-56
2023/03/20 02:56:48;;;;;;;0.40;0.40;;;;;;;3.72;91.32;97276.19;4993271;28;20420;-57
2023/03/20 02:59:29;;;;;;;0.35;0.35;;;;;;;3.65;91.78;97275.03;4985546;28;20054;-62
2023/03/20 03:02:23;;;;;;;0.40;0.40;;;;;;;3.67;92.17;97270.84;5000617;28;20109;-55
2023/03/20 03:04:55;;;;;;;0.40;0.40;;;;;;;3.55;92.45;97267.94;4983603;28;20108;-62
2023/03/20 03:07:27;;;;;;;0.30;0.30;;;;;;;3.56;93.05;97266.81;4984366;28;20076;-63
2023/03/20 03:09:59;;;;;;;0.40;0.40;;;;;;;3.56;94.52;97266.81;4999801;28;20104;-57
2023/03/20 03:12:30;;;;;;;0.45;0.45;;;;;;;3.55;94.30;97265.19;5009104;28;20088;-62
2023/03/20 03:15:05;;;;;;;0.40;0.40;;;;;;;3.56;95.37;97272.28;5024318;28;20056;-60
2023/03/20 03:17:34;;;;;;;0.40;0.40;;;;;;;3.64;94.40;97271.50;5024722;28;20065;-56
2023/03/20 03:20:07;;;;;;;0.40;0.40;;;;;;;3.63;95.01;97267.16;5022677;28;20045;-62
2023/03/20 03:22:35;;;;;;;0.40;0.40;;;;;;;3.21;96.43;97229.53;5039525;28;20061;-57
2023/03/20 03:25:02;;;;;;;0.40;0.40;;;;;;;3.59;97.29;97260.69;5023959;28;20081;-62
2023/03/20 03:27:36;;;;;;;0.40;0.40;;;;;;;3.13;96.62;97197.47;5039417;28;20057;-57
2023/03/20 03:30:15;;;;;;;0.40;0.40;;;;;;;3.54;96.88;97247.13;5024076;28;20140;-61
2023/03/20 03:33:16;;;;;;;0.40;0.40;;;;;;;3.60;95.61;97259.56;5024041;28;20053;-63
2023/03/20 03:35:45;;;;;;;0.40;0.40;;;;;;;2.78;94.92;97119.22;5022223;28;20472;-57
2023/03/20 03:38:34;;;;;;;0.40;0.40;;;;;;;3.48;93.29;97209.31;5037528;28;20588;-56
2023/03/20 03:41:06;;;;;;;0.40;0.40;;;;;;;3.66;93.59;97261.03;5022647;28;20049;-62
2023/03/20 03:43:46;;;;;;;0.40;0.40;;;;;;;0.89;92.92;96824.78;5022597;28;20049;-56
2023/03/20 03:46:24;;;;;;;0.40;0.40;;;;;;;3.49;94.29;97228.16;5022833;28;20053;-56
2023/03/20 03:48:55;;;;;;;0.40;0.40;;;;;;;3.58;94.74;97245.38;5037253;28;20068;-56
2023/03/20 03:51:27;;;;;;;0.40;0.40;;;;;;;3.51;95.16;97247.78;5024060;28;20661;-56
2023/03/20 03:54:03;;;;;;;0.50;0.50;;;;;;;3.57;95.63;97252.00;5023830;28;20425;-62
2023/03/20 03:56:33;;;;;;;0.40;0.40;;;;;;;3.67;95.28;97246.19;5024209;28;20049;-57
2023/03/20 03:59:07;;;;;;;0.40;0.40;;;;;;;3.48;97.01;97245.69;5023641;28;20049;-56
2023/03/20 04:01:35;;;;;;;0.40;0.40;;;;;;;3.48;97.75;97248.44;5022494;28;20092;-62
2023/03/20 04:04:09;;;;;;;0.40;0.40;;;;;;;3.41;97.95;97252.78;5023984;28;20053;-56
2023/03/20 04:06:36;;;;;;;0.47;0.47;;;;;;;3.42;98.41;97238.75;5023712;28;20056;-57
2023/03/20 04:09:02;;;;;;;0.47;0.47;;;;;;;3.13;98.00;97180.25;5038262;28;20050;-56
2023/03/20 04:11:29;;;;;;;0.38;0.38;;;;;;;3.47;97.61;97246.81;5020078;28;20045;-63
2023/03/20 04:13:56;;;;;;;0.30;0.30;;;;;;;3.18;95.97;97200.06;5004292;28;20050;-58
2023/03/20 04:16:23;;;;;;;0.40;0.40;;;;;;;3.29;93.21;97227.97;5003952;28;20424;-63
2023/03/20 04:18:50;;;;;;;0.40;0.40;;;;;;;3.56;90.50;97255.84;5004067;28;20515;-56
2023/03/20 04:21:18;;;;;;;0.40;0.40;;;;;;;3.49;90.67;97250.06;5004088;28;20046;-55
2023/03/20 04:23:45;;;;;;;0.40;0.40;;;;;;;3.39;93.15;97247.63;5004284;28;20136;-62
2023/03/20 04:26:11;;;;;;;0.40;0.40;;;;;;;3.25;95.00;97249.69;5004415;28;20488;-62
2023/03/20 04:28:38;;;;;;;0.40;0.40;;;;;;;2.22;93.92;97061.78;5003070;28;20603;-62
2023/03/20 04:31:05;;;;;;;0.40;0.40;;;;;;;3.43;93.01;97256.78;5004015;28;20073;-63
2023/03/20 04:33:32;;;;;;;0.40;0.40;;;;;;;3.34;94.03;97258.72;5004114;28;20472;-62
2023/03/20 04:35:59;;;;;;;0.40;0.40;;;;;;;3.40;93.99;97254.69;5003911;28;20542;-62
2023/03/20 04:38:26;;;;;;;0.40;0.40;;;;;;;3.01;93.20;97210.97;5003770;28;20049;-57
2023/03/20 04:40:52;;;;;;;0.40;0.40;;;;;;;3.36;92.98;97256.47;5003902;28;20468;-58
2023/03/20 04:43:19;;;;;;;0.40;0.40;;;;;;;3.30;93.56;97262.41;5003955;28;20128;-62
2023/03/20 04:45:46;;;;;;;0.30;0.30;;;;;;;3.40;94.78;97273.84;5002368;28;20170;-61
2023/03/20 04:48:13;;;;;;;0.50;0.50;;;;;;;2.95;95.78;97206.78;5003536;28;20093;-56
2023/03/20 04:50:40;;;;;;;0.40;0.40;;;;;;;3.69;95.44;97282.28;5005573;28;20083;-57
2023/03/20 04:53:06;;;;;;;0.40;0.40;;;;;;;3.80;95.85;97275.38;5021889;28;20089;-61
2023/03/20 04:55:33;;;;;;;0.40;0.40;;;;;;;3.45;94.28;97199.78;5006635;28;20649;-62
2023/03/20 04:58:00;;;;;;;0.40;0.40;;;;;;;3.77;94.03;97256.84;5007329;28;20218;-56
2023/03/20 05:00:27;;;;;;;0.40;0.40;;;;;;;4.02;93.70;97275.22;5003152;28;20108;-61
2023/03/20 05:02:53;;;;;;;0.40;0.40;;;;;;;1.37;92.59;96833.78;4987791;28;20422;-59
2023/03/20 05:05:21;;;;;;;0.40;0.40;;;;;;;4.18;92.29;97279.09;4987577;28;20133;-62
2023/03/20 05:07:48;;;;;;;0.40;0.40;;;;;;;4.25;90.14;97278.63;5002574;28;20133;-58
2023/03/20 05:10:15;;;;;;;0.40;0.40;;;;;;;4.27;88.91;97287.28;4985833;28;20046;-57
2023/03/20 05:12:42;;;;;;;0.50;0.50;;;;;;;4.31;89.40;97272.63;5014072;28;20057;-62
2023/03/20 05:15:09;;;;;;;0.40;0.40;;;;;;;3.60;89.35;97284.22;5026461;28;20041;-56
2023/03/20 05:17:36;;;;;;;0.38;0.38;;;;;;;2.78;92.18;97168.44;5026886;28;20311;-57
2023/03/20 05:20:04;;;;;;;0.40;0.40;;;;;;;3.86;91.29;97276.84;5026352;28;20504;-62
2023/03/20 05:22:30;;;;;;;0.40;0.40;;;;;;;4.18;90.54;97279.09;5026499;28;20049;-59
2023/03/20 05:24:57;;;;;;;0.40;0.40;;;;;;;3.61;89.33;97159.84;5026521;28;20049;-57
2023/03/20 05:27:23;;;;;;;0.40;0.40;;;;;;;3.99;89.09;97264.91;5026213;28;20104;-61
2023/03/20 05:29:50;;;;;;;0.40;0.40;;;;;;;3.83;91.06;97269.25;5026048;28;20076;-56
2023/03/20 05:32:17;;;;;;;0.40;0.40;;;;;;;4.31;90.18;97271.81;5025885;28;20056;-62
2023/03/20 05:34:43;;;;;;;0.40;0.40;;;;;;;4.53;89.26;97247.75;5025952;28;20523;-62
2023/03/20 05:37:10;;;;;;;0.50;0.50;;;;;;;4.93;88.26;97272.16;5026216;28;20170;-56
2023/03/20 05:39:37;;;;;;;0.40;0.40;;;;;;;5.20;88.01;97269.00;5025894;28;20073;-57
2023/03/20 05:42:03;;;;;;;0.40;0.40;;;;;;;5.40;88.23;97265.47;5026131;28;20049;-62
2023/03/20 05:44:31;;;;;;;0.50;0.50;;;;;;;5.62;87.67;97267.94;5041024;28;20527;-57
2023/03/20 05:46:57;;;;;;;0.50;0.50;;;;;;;5.76;87.48;97265.75;5026046;28;20053;-57
2023/03/20 05:49:24;;;;;;;0.50;0.50;;;;;;;5.94;86.61;97259.03;5025457;28;20101;-58
2023/03/20 05:51:50;;;;;;;0.47;0.47;;;;;;;6.12;85.96;97271.47;5026041;28;20077;-63
2023/03/20 05:54:17;;;;;;;0.50;0.50;;;;;;;6.26;85.11;97260.22;5024563;28;20103;-63
2023/03/20 05:56:44;;;;;;;0.50;0.50;;;;;;;6.43;85.59;97265.56;5025795;28;20057;-56
2023/03/20 05:59:11;;;;;;;0.50;0.50;;;;;;;6.81;83.46;97260.63;5026079;28;20069;-62
2023/03/20 06:01:37;;;;;;;0.60;0.60;;;;;;;7.03;82.17;97387.72;5025330;28;20087;-58
2023/03/20 06:04:04;;;;;;;0.50;0.50;;;;;;;7.26;81.97;97267.69;5025924;28;20502;-62
2023/03/20 06:06:31;;;;;;;0.63;0.63;;;;;;;7.42;80.11;97271.38;5040754;28;20111;-58
2023/03/20 06:08:57;;;;;;;0.60;0.60;;;;;;;7.40;79.52;97234.28;5025470;28;20592;-59
2023/03/20 06:11:24;;;;;;;0.60;0.60;;;;;;;7.67;79.04;97248.16;5022404;28;20092;-57
2023/03/20 06:13:53;;;;;;;0.60;0.60;;;;;;;7.82;78.56;97262.38;5005769;28;20107;-62
2023/03/20 06:16:20;;;;;;;0.70;0.70;;;;;;;7.81;77.97;97250.53;5005656;28;20159;-62
2023/03/20 06:18:48;;;;;;;0.60;0.60;;;;;;;7.94;77.75;97240.28;5003310;28;20057;-63
2023/03/20 06:21:15;;;;;;;0.70;0.70;;;;;;;7.66;77.88;97182.34;4985878;28;20100;-62
2023/03/20 06:23:41;;;;;;;0.70;0.70;;;;;;;7.96;77.76;97204.91;4985498;28;20054;-63
2023/03/20 06:26:08;;;;;;;0.70;0.70;;;;;;;8.45;77.04;97253.28;4985873;28;20057;-57
2023/03/20 06:28:36;;;;;;;0.70;0.70;;;;;;;8.20;76.21;97196.53;4985060;28;20077;-62
2023/03/20 06:31:02;;;;;;;0.80;0.80;;;;;;;7.86;75.86;97095.06;5000670;28;20333;-63
2023/03/20 06:33:29;;;;;;;0.70;0.70;;;;;;;8.71;74.94;97190.91;4985251;28;20065;-62
2023/03/20 06:35:56;;;;;;;0.70;0.70;;;;;;;9.04;74.73;97207.94;4985856;28;20113;-57
2023/03/20 06:38:23;;;;;;;0.80;0.80;;;;;;;9.55;74.20;97241.97;4985593;28;20050;-57
2023/03/20 06:40:49;;;;;;;0.70;0.70;;;;;;;9.86;72.22;97241.94;4985374;28;20065;-57
2023/03/20 06:43:19;;;;;;;0.70;0.70;;;;;;;8.85;71.03;97049.63;4989814;28;20657;-60
2023/03/20 06:45:47;;;;;;;0.80;0.80;;;;;;;10.05;70.76;97244.72;5003531;28;20548;-66
2023/03/20 06:48:15;;;;;;;0.73;0.73;;;;;;;9.75;71.25;97179.22;5004309;28;20066;-64
2023/03/20 06:50:41;;;;;;;0.77;0.77;;;;;;;10.12;72.20;97242.16;5004430;28;20046;-69
2023/03/20 06:53:08;;;;;;;0.90;0.90;;;;;;;9.15;73.99;97128.09;5004848;28;20057;-70
2023/03/20 06:55:35;;;;;;;0.80;0.80;;;;;;;9.45;74.08;97170.66;5004529;28;20095;-58
2023/03/20 06:58:02;;;;;;;0.80;0.80;;;;;;;10.21;73.31;97237.19;5004423;28;20050;-56
2023/03/20 07:00:29;;;;;;;0.80;0.80;;;;;;;10.52;72.55;97237.06;5003827;28;20077;-59
2023/03/20 07:02:55;;;;;;;0.88;0.88;;;;;;;10.82;71.48;97239.22;5003433;28;20054;-64
2023/03/20 07:05:22;;;;;;;0.80;0.80;;;;;;;10.93;71.41;97218.03;5004166;28;20049;-58
2023/03/20 07:07:49;;;;;;;0.90;0.90;;;;;;;10.88;71.68;97194.22;5000583;28;20520;-58
2023/03/20 07:10:16;;;;;;;0.90;0.90;;;;;;;8.82;70.50;96826.63;4984862;28;20046;-59
2023/03/20 07:12:43;;;;;;;0.90;0.90;;;;;;;10.54;70.09;97074.06;4984445;28;20101;-62
2023/03/20 07:15:10;;;;;;;0.98;0.98;;;;;;;11.08;69.71;97123.66;4985110;28;20082;-58
2023/03/20 07:17:37;;;;;;;1.00;1.00;;;;;;;11.63;67.66;97133.28;4985030;28;20074;-68
2023/03/20 07:20:04;;;;;;;1.02;1.02;;;;;;;12.46;66.11;97216.09;4995310;28;20050;-58
2023/03/20 07:22:31;;;;;;;1.00;1.00;;;;;;;12.60;65.34;97221.81;5004300;28;20141;-57
2023/03/20 07:24:57;;;;;;;1.00;1.00;;;;;;;12.09;66.28;97148.56;5002334;28;20092;-56
2023/03/20 07:27:25;;;;;;;1.00;1.00;;;;;;;12.80;65.51;97220.47;5004222;28;20062;-58
2023/03/20 07:29:51;;;;;;;1.10;1.10;;;;;;;12.69;64.27;97166.75;5003838;28;20077;-56
2023/03/20 07:32:19;;;;;;;1.02;1.02;;;;;;;12.47;63.60;97141.88;5004196;28;20117;-64
2023/03/20 07:34:46;;;;;;;1.17;1.17;;;;;;;13.03;61.84;97175.84;5002897;28;20046;-67
2023/03/20 07:37:13;;;;;;;1.20;1.20;;;;;;;13.45;62.37;97210.41;5000652;28;20085;-65
2023/03/20 07:39:39;;;;;;;1.00;1.00;;;;;;;13.72;61.38;97215.78;5015801;28;20073;-56
2023/03/20 07:42:06;;;;;;;1.13;1.13;;;;;;;13.57;60.69;97173.94;5004445;28;20107;-63
2023/03/20 07:44:33;;;;;;;1.20;1.20;;;;;;;14.00;59.53;97208.44;5006856;28;20057;-57
2023/03/20 07:47:00;;;;;;;1.10;1.10;;;;;;;13.59;58.76;97138.16;5006131;28;20664;-56
2023/03/20 07:49:26;;;;;;;1.10;1.10;;;;;;;14.20;57.55;97211.72;5003274;28;20480;-65
2023/03/20 07:51:53;;;;;;;1.10;1.10;;;;;;;14.40;55.42;97215.84;5004370;28;20147;-57
2023/03/20 07:54:20;;;;;;;1.17;1.17;;;;;;;14.53;55.43;97211.50;5004031;28;20445;-69
2023/03/20 07:56:47;;;;;;;1.30;1.30;;;;;;;14.90;55.62;97279.00;5023898;28;20868;-67
2023/03/20 07:59:13;;;;;;;1.23;1.23;;;;;;;14.89;54.18;97146.31;5003115;28;20050;-55
2023/03/20 08:01:40;;;;;;;1.42;1.42;;;;;;;15.52;53.19;97193.84;5003330;28;20049;-56
2023/03/20 08:04:07;;;;;;;1.50;1.50;;;;;;;15.24;52.79;97196.56;5003393;28;20057;-57
2023/03/20 08:06:35;;;;;;;1.20;1.20;;;;;;;15.47;53.30;97197.03;5001993;28;20046;-59
2023/03/20 08:09:02;;;;;;;1.50;1.50;;;;;;;15.48;52.45;97165.13;5003712;28;20595;-61
2023/03/20 08:11:29;;;;;;;1.45;1.45;;;;;;;15.57;52.20;97156.34;5010702;28;20057;-59
2023/03/20 08:13:59;;;;;;;1.50;1.50;;;;;;;15.79;52.14;97192.22;5007206;28;20054;-58
2023/03/20 08:16:25;;;;;;;1.60;1.60;;;;;;;15.57;52.22;97181.47;5009607;28;20050;-56
2023/03/20 08:18:55;;;;;;;1.40;1.40;;;;;;;15.40;52.50;97204.59;5011482;28;20050;-56
2023/03/20 08:21:21;;;;;;;1.50;1.50;;;;;;;15.15;51.96;97120.81;5003248;28;20536;-67
2023/03/20 08:23:48;;;;;;;1.25;1.25;;;;;;;14.79;54.54;97183.34;5003070;28;20081;-56
2023/03/20 08:26:15;;;;;;;1.30;1.30;;;;;;;13.44;53.94;96947.25;5013120;28;20472;-66
2023/03/20 08:28:42;;;;;;;1.40;1.40;;;;;;;14.44;53.42;97021.56;5005684;28;20706;-68
2023/03/20 08:31:14;;;;;;;1.45;1.45;;;;;;;15.82;52.80;97185.06;5007698;28;20049;-71
2023/03/20 08:33:40;;;;;;;1.40;1.40;;;;;;;16.01;51.92;97182.59;5001697;28;20093;-62
2023/03/20 08:36:07;;;;;;;1.50;1.50;;;;;;;15.55;52.27;97175.50;5004136;28;20057;-57
2023/03/20 08:38:34;;;;;;;1.35;1.35;;;;;;;15.85;51.79;97185.06;5005335;28;20049;-61
2023/03/20 08:41:01;;;;;;;1.60;1.60;;;;;;;15.94;51.75;97170.66;5001523;28;20058;-61
2023/03/20 08:43:28;;;;;;;1.63;1.63;;;;;;;16.37;50.63;97169.34;5007245;28;20081;-55
2023/03/20 08:45:55;;;;;;;1.80;1.80;;;;;;;16.56;49.64;97171.69;5006531;28;20497;-56
2023/03/20 08:48:22;;;;;;;1.60;1.60;;;;;;;16.97;49.26;97171.88;5007785;28;20137;-60
2023/03/20 08:50:49;;;;;;;1.80;1.80;;;;;;;17.03;48.66;97147.84;5005696;28;20058;-70
2023/03/20 08:53:15;;;;;;;1.77;1.77;;;;;;;16.87;49.11;97139.16;5021613;28;20096;-57
2023/03/20 08:55:52;;;;;;;1.60;1.60;;;;;;;16.61;48.74;97102.13;5008117;28;20046;-69
2023/03/20 08:58:20;;;;;;;1.75;1.75;;;;;;;17.29;48.45;97162.06;5005733;28;20046;-59
2023/03/20 09:00:46;;;;;;;1.70;1.70;;;;;;;16.54;48.07;97043.47;5007629;28;20049;-60
2023/03/20 09:03:15;;;;;;;1.63;1.63;;;;;;;17.14;47.99;97126.19;5024547;28;20060;-65
2023/03/20 09:05:50;;;;;;;1.80;1.80;;;;;;;16.88;47.86;97112.78;5025213;28;20073;-64
2023/03/20 09:08:17;;;;;;;1.85;1.85;;;;;;;17.16;47.83;97162.97;5021909;28;20324;-58
2023/03/20 09:10:45;;;;;;;1.63;1.63;;;;;;;16.73;47.83;97083.28;4992328;28;20049;-66
2023/03/20 09:13:12;;;;;;;1.60;1.60;;;;;;;15.99;47.26;96977.44;5003733;28;20069;-59
2023/03/20 09:15:53;;;;;;;1.85;1.85;;;;;;;17.71;46.70;97152.53;5007613;28;20160;-68
2023/03/20 09:18:20;;;;;;;1.90;1.90;;;;;;;17.86;47.14;97148.41;5006018;28;20057;-69
2023/03/20 09:20:47;;;;;;;1.92;1.92;;;;;;;18.30;45.92;97155.94;5005166;28;20702;-68
2023/03/20 09:23:15;;;;;;;2.00;2.00;;;;;;;18.14;45.97;97089.22;5005815;28;20050;-58
2023/03/20 09:25:42;;;;;;;1.80;1.80;;;;;;;18.84;45.10;97133.22;5005890;28;20054;-69
2023/03/20 09:28:09;;;;;;;2.00;2.00;;;;;;;19.00;45.10;97135.44;5006860;28;20527;-64
2023/03/20 09:30:36;;;;;;;1.98;1.98;;;;;;;18.45;45.80;97132.94;5006354;28;20108;-65
2023/03/20 09:33:03;;;;;;;2.08;2.08;;;;;;;18.79;44.39;97142.13;5006162;28;20156;-56
2023/03/20 09:35:30;;;;;;;2.00;2.00;;;;;;;18.72;43.93;97102.94;5037672;28;20045;-66
2023/03/20 09:37:56;;;;;;;2.00;2.00;;;;;;;18.49;43.92;97060.78;4996524;28;20552;-72
2023/03/20 09:40:28;;;;;;;1.95;1.95;;;;;;;19.06;43.53;97128.09;5003706;28;20065;-68
2023/03/20 09:43:28;;;;;;;1.90;1.90;;;;;;;18.76;43.57;97069.97;5020722;28;20088;-70
2023/03/20 09:46:03;;;;;;;2.08;2.08;;;;;;;19.18;42.98;97114.28;5005360;28;20077;-63
2023/03/20 09:48:59;;;;;;;1.90;1.90;;;;;;;18.36;43.97;97016.84;5010835;28;20054;-59
2023/03/20 09:51:49;;;;;;;1.95;1.95;;;;;;;19.23;43.23;97076.47;5004018;28;20137;-55
2023/03/20 09:54:24;;;;;;;2.10;2.10;;;;;;;19.66;42.81;97107.50;5005690;28;20576;-58
2023/03/20 09:56:53;;;;;;;1.90;1.90;;;;;;;19.96;41.79;97102.53;5005534;28;20604;-75
2023/03/20 09:59:21;;;;;;;1.90;1.90;;;;;;;19.73;41.97;97059.59;5005516;28;20537;-58
2023/03/20 10:01:52;;;;;;;2.08;2.08;;;;;;;19.75;41.54;97034.63;5004126;28;20057;-67
2023/03/20 10:04:19;;;;;;;2.20;2.20;;;;;;;20.27;40.98;97097.50;4988676;28;20603;-69
2023/03/20 10:06:46;;;;;;;1.85;1.85;;;;;;;19.93;40.59;97096.97;4986436;28;20062;-66
2023/03/20 10:09:24;;;;;;;2.00;2.00;;;;;;;19.84;41.23;97099.56;4987600;28;20507;-69
2023/03/20 10:12:07;;;;;;;2.00;2.00;;;;;;;19.71;41.91;97090.16;5002277;28;20048;-68
2023/03/20 10:14:56;;;;;;;2.17;2.17;;;;;;;20.03;41.02;97095.97;5004941;28;20050;-74
2023/03/20 10:17:33;;;;;;;1.98;1.98;;;;;;;19.37;41.84;97093.94;5005750;28;20050;-59
2023/03/20 10:20:26;;;;;;;1.90;1.90;;;;;;;19.72;41.16;97092.53;5004974;28;20046;-74
2023/03/20 10:22:58;;;;;;;1.85;1.85;;;;;;;19.19;42.40;97081.38;5005839;28;20175;-58
2023/03/20 10:25:38;;;;;;;1.80;1.80;;;;;;;19.49;42.45;97073.66;5005350;28;20085;-59
2023/03/20 10:28:27;;;;;;;2.00;2.00;;;;;;;20.08;40.87;97053.25;5005043;28;20500;-59
2023/03/20 10:31:18;;;;;;;1.95;1.95;;;;;;;20.14;40.22;97071.28;5004984;28;20151;-59
2023/03/20 10:34:16;;;;;;;1.90;1.90;;;;;;;19.67;40.32;96983.41;5005157;28;20182;-71
2023/03/20 10:36:58;;;;;;;2.10;2.10;;;;;;;20.75;40.06;97063.94;5020019;28;20085;-59
2023/03/20 10:39:36;;;;;;;2.13;2.13;;;;;;;19.76;40.90;97053.88;5005186;28;20057;-58
2023/03/20 10:42:19;;;;;;;1.95;1.95;;;;;;;20.13;39.37;96971.19;5005161;28;20057;-71
2023/03/20 10:44:54;;;;;;;2.20;2.20;;;;;;;20.84;38.56;97044.41;5005314;28;20626;-58
2023/03/20 10:47:23;;;;;;;2.00;2.00;;;;;;;21.11;37.93;97041.38;5004300;28;20307;-71
2023/03/20 10:49:59;;;;;;;2.00;2.00;;;;;;;20.42;39.45;97005.97;5005420;28;20072;-73
2023/03/20 10:52:31;;;;;;;2.30;2.30;;;;;;;21.12;38.18;97035.31;5005179;28;20116;-60
2023/03/20 10:55:13;;;;;;;2.17;2.17;;;;;;;21.25;37.37;97036.19;5004498;28;20061;-59
2023/03/20 10:57:47;;;;;;;2.10;2.10;;;;;;;20.63;38.95;97028.78;5005265;28;20131;-59
2023/03/20 11:00:22;;;;;;;2.38;2.30;;;;;;;20.44;38.06;96980.97;5003206;28;20054;-73
2023/03/20 11:02:49;;;;;;;1.98;1.98;;;;;;;20.77;37.50;97022.81;4986497;28;20487;-73
2023/03/20 11:05:28;;;;;;;2.08;2.08;;;;;;;20.27;39.11;97015.94;4984397;28;20065;-59
2023/03/20 11:08:10;;;;;;;2.00;2.00;;;;;;;20.58;38.19;97014.44;4985410;28;20065;-62
2023/03/20 11:10:38;;;;;;;2.22;2.22;;;;;;;20.13;37.76;96962.75;4982798;28;20159;-74
2023/03/20 11:13:23;;;;;;;1.98;1.98;;;;;;;20.78;35.71;96995.47;5023645;28;20081;-61
2023/03/20 11:15:52;;;;;;;2.30;2.30;;;;;;;21.20;36.62;96988.81;5022823;28;20057;-58
2023/03/20 11:18:19;;;;;;;2.08;2.08;;;;;;;20.96;36.36;96995.84;5023952;28;20080;-74
2023/03/20 11:20:55;;;;;;;2.20;2.20;;;;;;;20.98;35.69;96993.41;5022668;28;20089;-58
2023/03/20 11:23:32;;;;;;;2.00;2.00;;;;;;;20.70;36.29;96988.44;5024000;28;20123;-60
2023/03/20 11:25:59;;;;;;;2.20;2.20;;;;;;;20.76;35.36;96970.56;5023934;28;20053;-72
2023/03/20 11:28:33;;;;;;;2.10;2.10;;;;;;;21.32;35.18;96979.66;5024019;28;20538;-73
2023/03/20 11:31:12;;;;;;;2.08;2.08;;;;;;;21.68;34.18;96973.84;5023985;28;20493;-74
2023/03/20 11:33:45;;;;;;;2.53;2.42;;;;;;;21.48;34.52;96965.50;5023695;28;20089;-61
2023/03/20 11:36:22;;;;;;;2.67;2.58;;;;;;;21.50;33.62;96962.28;5010425;28;20551;-75
2023/03/20 11:38:51;;;;;;;2.30;2.30;;;;;;;21.05;34.08;96880.56;4984100;28;20145;-58
2023/03/20 11:41:23;;;;;;;2.50;2.40;;;;;;;21.24;33.46;96905.00;4984535;28;20456;-59
2023/03/20 11:43:50;;;;;;;2.20;2.20;;;;;;;20.95;33.63;96842.16;5000330;28;20064;-59
2023/03/20 11:46:20;;;;;;;2.20;2.20;;;;;;;21.74;33.53;96955.94;5003678;28;20112;-60
2023/03/20 11:48:46;;;;;;;2.20;2.20;;;;;;;21.56;32.99;96921.81;5003135;28;20133;-67
2023/03/20 11:51:19;;;;;;;2.28;2.28;;;;;;;22.33;32.43;96942.13;5004422;28;20050;-59
2023/03/20 11:53:45;;;;;;;2.67;2.58;;;;;;;22.63;31.93;96937.19;5004255;28;20049;-66
2023/03/20 11:56:19;;;;;;;2.30;2.30;;;;;;;21.88;32.11;96937.84;5002380;28;20132;-64
2023/03/20 11:59:13;;;;;;;2.55;2.45;;;;;;;22.06;32.48;96933.28;5002789;28;20081;-60